createdAt,value
2022-11-20T00:01:20.950Z,12.55
2022-11-20T00:03:48.410Z,13.13
2022-11-20T00:06:18.292Z,12.65
2022-11-20T00:08:45.853Z,12.23
2022-11-20T00:11:17.219Z,12.45
2022-11-20T00:13:45.218Z,12.05
2022-11-20T00:16:14.782Z,12.20
2022-11-20T00:18:43.250Z,12.10
2022-11-20T00:21:25.053Z,12.57
2022-11-20T00:23:54.870Z,12.15
2022-11-20T00:26:24.039Z,12.13
2022-11-20T00:28:53.531Z,13.32
2022-11-20T00:31:20.473Z,11.93
2022-11-20T00:33:47.730Z,11.75
2022-11-20T00:36:22.963Z,12.98
2022-11-20T00:38:54.453Z,11.85
2022-11-20T00:41:21.633Z,11.93
2022-11-20T00:43:48.509Z,11.48
2022-11-20T00:46:17.926Z,12.48
2022-11-20T00:48:45.457Z,11.85
2022-11-20T00:51:14.285Z,11.85
2022-11-20T00:53:41.027Z,11.90
2022-11-20T00:56:10.590Z,12.10
2022-11-20T00:58:39.485Z,12.52
2022-11-20T01:01:15.376Z,11.98
2022-11-20T01:03:44.682Z,11.88
2022-11-20T01:06:12.740Z,12.82
2022-11-20T01:08:40.202Z,11.55
2022-11-20T01:11:14.195Z,11.85
2022-11-20T01:13:41.853Z,12.57
2022-11-20T01:16:23.605Z,12.18
2022-11-20T01:18:53.746Z,11.32
2022-11-20T01:21:24.593Z,12.38
2022-11-20T01:23:52.088Z,12.57
2022-11-20T01:26:22.150Z,11.90
2022-11-20T01:28:49.791Z,12.10
2022-11-20T01:31:22.644Z,12.02
2022-11-20T01:33:52.338Z,12.48
2022-11-20T01:36:22.100Z,12.13
2022-11-20T01:38:53.003Z,12.90
2022-11-20T01:41:38.713Z,12.65
2022-11-20T01:44:06.508Z,11.77
2022-11-20T01:47:04.441Z,11.70
2022-11-20T01:49:51.172Z,12.48
2022-11-20T01:52:35.823Z,11.50
2022-11-20T01:55:16.171Z,12.00
2022-11-20T01:57:45.152Z,11.55
2022-11-20T02:00:15.229Z,12.55
2022-11-20T02:03:08.112Z,12.05
2022-11-20T02:06:00.439Z,12.20
2022-11-20T02:08:27.288Z,12.40
2022-11-20T02:10:54.045Z,12.05
2022-11-20T02:13:39.360Z,12.65
2022-11-20T02:16:18.485Z,11.93
2022-11-20T02:18:46.319Z,12.35
2022-11-20T02:21:26.566Z,11.57
2022-11-20T02:24:08.426Z,11.90
2022-11-20T02:26:58.136Z,12.50
2022-11-20T02:29:29.007Z,12.40
2022-11-20T02:31:57.357Z,11.73
2022-11-20T02:34:24.147Z,13.70
2022-11-20T02:36:52.895Z,13.77
2022-11-20T02:39:21.609Z,12.05
2022-11-20T02:41:48.711Z,11.18
2022-11-20T02:44:18.096Z,11.65
2022-11-20T02:46:44.841Z,11.63
2022-11-20T02:49:11.687Z,11.80
2022-11-20T02:51:38.428Z,11.75
2022-11-20T02:54:05.325Z,12.23
2022-11-20T02:56:37.146Z,11.52
2022-11-20T02:59:03.871Z,12.77
2022-11-20T03:01:30.671Z,11.80
2022-11-20T03:03:57.526Z,12.35
2022-11-20T03:06:24.342Z,11.95
2022-11-20T03:08:51.002Z,11.73
2022-11-20T03:11:18.203Z,11.43
2022-11-20T03:13:45.068Z,12.40
2022-11-20T03:16:17.839Z,12.57
2022-11-20T03:18:44.887Z,11.90
2022-11-20T03:21:13.415Z,11.65
2022-11-20T03:23:40.807Z,11.80
2022-11-20T03:26:25.882Z,12.65
2022-11-20T03:28:55.219Z,11.48
2022-11-20T03:31:27.210Z,11.40
2022-11-20T03:33:54.248Z,11.85
2022-11-20T03:36:22.200Z,12.48
2022-11-20T03:38:49.887Z,12.65
2022-11-20T03:41:19.597Z,11.27
2022-11-20T03:43:55.418Z,12.23
2022-11-20T03:46:22.681Z,12.25
2022-11-20T03:48:51.869Z,12.45
2022-11-20T03:51:20.546Z,12.40
2022-11-20T03:53:48.584Z,11.35
2022-11-20T03:56:17.703Z,11.48
2022-11-20T03:58:44.916Z,12.10
2022-11-20T04:01:17.964Z,12.48
2022-11-20T04:03:46.247Z,12.05
2022-11-20T04:06:17.379Z,12.02
2022-11-20T04:08:47.487Z,12.43
2022-11-20T04:11:24.584Z,11.77
2022-11-20T04:13:56.606Z,12.63
2022-11-20T04:16:24.855Z,13.27
2022-11-20T04:18:55.917Z,11.77
2022-11-20T04:21:23.452Z,13.15
2022-11-20T04:23:51.187Z,13.27
2022-11-20T04:26:18.091Z,14.23
2022-11-20T04:28:44.933Z,13.70
2022-11-20T04:31:12.872Z,12.68
2022-11-20T04:33:40.577Z,12.50
2022-11-20T04:36:12.665Z,12.85
2022-11-20T04:38:40.039Z,14.85
2022-11-20T04:41:08.644Z,14.32
2022-11-20T04:43:35.710Z,14.18
2022-11-20T04:46:02.457Z,14.25
2022-11-20T04:48:30.162Z,13.68
2022-11-20T04:50:57.109Z,13.85
2022-11-20T04:53:24.500Z,14.55
2022-11-20T04:55:51.271Z,15.30
2022-11-20T04:58:18.114Z,14.55
2022-11-20T05:00:45.021Z,16.00
2022-11-20T05:03:11.810Z,13.85
2022-11-20T05:05:38.587Z,14.48
2022-11-20T05:08:05.468Z,14.95
2022-11-20T05:10:32.165Z,13.95
2022-11-20T05:12:58.857Z,13.55
2022-11-20T05:15:25.802Z,13.30
2022-11-20T05:17:53.785Z,14.15
2022-11-20T05:20:21.158Z,12.80
2022-11-20T05:22:47.995Z,14.25
2022-11-20T05:25:14.800Z,14.52
2022-11-20T05:27:41.541Z,13.60
2022-11-20T05:30:09.001Z,13.10
2022-11-20T05:32:35.864Z,13.15
2022-11-20T05:35:02.592Z,14.65
2022-11-20T05:37:29.259Z,15.43
2022-11-20T05:39:55.967Z,14.30
2022-11-20T05:42:31.880Z,14.10
2022-11-20T05:44:59.940Z,13.60
2022-11-20T05:47:27.840Z,13.85
2022-11-20T05:49:55.239Z,13.70
2022-11-20T05:52:22.089Z,13.88
2022-11-20T05:54:49.019Z,14.43
2022-11-20T05:57:18.345Z,14.20
2022-11-20T05:59:45.179Z,13.45
2022-11-20T06:02:12.152Z,14.02
2022-11-20T06:04:38.947Z,14.18
2022-11-20T06:07:08.537Z,14.18
2022-11-20T06:09:35.677Z,13.52
2022-11-20T06:12:02.461Z,14.40
2022-11-20T06:14:29.222Z,13.57
2022-11-20T06:16:56.239Z,14.18
2022-11-20T06:19:23.674Z,13.93
2022-11-20T06:21:51.123Z,14.05
2022-11-20T06:24:18.287Z,15.60
2022-11-20T06:26:45.389Z,14.45
2022-11-20T06:29:12.223Z,15.80
2022-11-20T06:31:39.117Z,15.27
2022-11-20T06:34:07.150Z,14.68
2022-11-20T06:36:34.317Z,14.95
2022-11-20T06:39:01.536Z,15.73
2022-11-20T06:41:29.031Z,15.63
2022-11-20T06:43:56.089Z,15.82
2022-11-20T06:46:23.202Z,15.07
2022-11-20T06:48:51.102Z,15.10
2022-11-20T06:51:20.341Z,15.73
2022-11-20T06:53:47.167Z,15.85
2022-11-20T06:56:13.962Z,15.65
2022-11-20T06:58:40.691Z,15.18
2022-11-20T07:01:10.707Z,15.55
2022-11-20T07:03:37.830Z,16.23
2022-11-20T07:06:04.948Z,15.73
2022-11-20T07:08:31.961Z,16.77
2022-11-20T07:11:06.539Z,15.32
2022-11-20T07:13:33.833Z,16.35
2022-11-20T07:16:02.293Z,14.88
2022-11-20T07:18:29.183Z,14.57
2022-11-20T07:20:56.448Z,14.48
2022-11-20T07:23:23.209Z,14.43
2022-11-20T07:25:50.181Z,14.02
2022-11-20T07:28:17.039Z,13.23
2022-11-20T07:30:43.785Z,14.07
2022-11-20T07:33:10.634Z,13.88
2022-11-20T07:35:37.415Z,14.00
2022-11-20T07:38:04.484Z,14.93
2022-11-20T07:40:31.299Z,13.70
2022-11-20T07:42:57.972Z,13.95
2022-11-20T07:45:25.702Z,14.50
2022-11-20T07:47:52.639Z,14.95
2022-11-20T07:50:20.476Z,14.25
2022-11-20T07:52:47.837Z,14.32
2022-11-20T07:55:14.977Z,13.63
2022-11-20T07:57:41.759Z,14.75
2022-11-20T08:00:10.828Z,14.02
2022-11-20T08:02:41.425Z,13.10
2022-11-20T08:05:10.052Z,13.07
2022-11-20T08:07:46.282Z,12.88
2022-11-20T08:10:16.245Z,12.73
2022-11-20T08:13:09.916Z,13.50
2022-11-20T08:15:37.400Z,14.02
2022-11-20T08:18:37.461Z,14.27
2022-11-20T08:21:04.891Z,16.45
2022-11-20T08:23:31.803Z,16.20
2022-11-20T08:25:58.549Z,14.38
2022-11-20T08:28:25.314Z,15.23
2022-11-20T08:30:52.194Z,14.90
2022-11-20T08:33:19.509Z,16.48
2022-11-20T08:35:46.635Z,13.15
2022-11-20T08:38:16.574Z,14.57
2022-11-20T08:41:03.472Z,15.00
2022-11-20T08:43:30.256Z,14.57
2022-11-20T08:45:58.477Z,14.77
2022-11-20T08:48:25.295Z,14.60
2022-11-20T08:50:52.127Z,14.88
2022-11-20T08:53:18.921Z,15.10
2022-11-20T08:55:45.639Z,20.58
2022-11-20T08:58:12.495Z,16.40
2022-11-20T09:00:39.277Z,16.48
2022-11-20T09:03:06.100Z,15.40
2022-11-20T09:05:33.139Z,14.43
2022-11-20T09:08:00.805Z,14.90
2022-11-20T09:10:28.660Z,16.25
2022-11-20T09:12:56.381Z,16.25
2022-11-20T09:15:24.685Z,15.70
2022-11-20T09:17:56.225Z,16.42
2022-11-20T09:20:23.539Z,15.02
2022-11-20T09:22:50.396Z,15.70
2022-11-20T09:25:17.323Z,15.02
2022-11-20T09:27:45.512Z,15.05
2022-11-20T09:30:14.067Z,15.57
2022-11-20T09:32:41.544Z,14.18
2022-11-20T09:35:08.952Z,14.23
2022-11-20T09:37:36.130Z,14.75
2022-11-20T09:40:03.153Z,15.30
2022-11-20T09:42:48.214Z,14.18
2022-11-20T09:45:36.833Z,13.52
2022-11-20T09:48:30.691Z,13.90
2022-11-20T09:51:35.662Z,15.27
2022-11-20T09:54:17.643Z,14.65
2022-11-20T09:56:48.767Z,13.48
2022-11-20T09:59:33.604Z,14.60
2022-11-20T10:02:09.762Z,14.52
2022-11-20T10:04:43.497Z,14.18
2022-11-20T10:07:32.586Z,15.40
2022-11-20T10:10:00.307Z,13.88
2022-11-20T10:12:58.248Z,15.02
2022-11-20T10:15:43.851Z,15.15
2022-11-20T10:18:21.810Z,13.60
2022-11-20T10:21:12.317Z,15.43
2022-11-20T10:23:39.048Z,16.40
2022-11-20T10:26:23.793Z,15.95
2022-11-20T10:29:09.314Z,15.48
2022-11-20T10:31:53.195Z,17.20
2022-11-20T10:34:26.954Z,16.60
2022-11-20T10:37:04.574Z,17.20
2022-11-20T10:39:41.387Z,16.45
2022-11-20T10:42:18.398Z,17.00
2022-11-20T10:45:06.091Z,15.50
2022-11-20T10:47:36.633Z,15.60
2022-11-20T10:50:06.952Z,16.50
2022-11-20T10:53:07.865Z,17.10
2022-11-20T10:55:56.876Z,17.17
2022-11-20T10:58:35.639Z,16.60
2022-11-20T11:01:19.399Z,16.27
2022-11-20T11:03:46.938Z,16.60
2022-11-20T11:06:35.566Z,16.15
2022-11-20T11:09:10.145Z,17.13
2022-11-20T11:11:39.164Z,16.23
2022-11-20T11:14:07.986Z,15.38
2022-11-20T11:16:35.448Z,16.48
2022-11-20T11:19:17.091Z,15.82
2022-11-20T11:21:54.970Z,16.45
2022-11-20T11:24:42.708Z,16.20
2022-11-20T11:27:17.683Z,16.55
2022-11-20T11:29:45.491Z,15.23
2022-11-20T11:32:23.180Z,15.88
2022-11-20T11:35:20.419Z,16.75
2022-11-20T11:37:51.979Z,15.98
2022-11-20T11:40:24.772Z,16.27
2022-11-20T11:43:03.804Z,15.38
2022-11-20T11:45:33.495Z,15.77
2022-11-20T11:48:04.611Z,16.40
2022-11-20T11:50:32.078Z,14.90
2022-11-20T11:53:15.676Z,16.48
2022-11-20T11:56:03.706Z,15.68
2022-11-20T11:58:56.340Z,16.27
2022-11-20T12:01:25.996Z,17.13
2022-11-20T12:04:11.861Z,16.23
2022-11-20T12:06:43.560Z,16.00
2022-11-20T12:09:12.282Z,16.38
2022-11-20T12:11:50.697Z,16.77
2022-11-20T12:14:40.494Z,15.65
2022-11-20T12:17:11.931Z,15.27
2022-11-20T12:19:38.781Z,16.15
2022-11-20T12:22:39.814Z,15.50
2022-11-20T12:25:23.827Z,15.30
2022-11-20T12:27:53.461Z,15.55
2022-11-20T12:30:23.357Z,16.13
2022-11-20T12:33:19.109Z,15.23
2022-11-20T12:36:02.899Z,14.37
2022-11-20T12:39:00.746Z,15.23
2022-11-20T12:41:56.606Z,14.43
2022-11-20T12:45:12.446Z,14.98
2022-11-20T12:47:48.025Z,14.93
2022-11-20T12:51:08.013Z,16.77
2022-11-20T12:53:53.689Z,14.00
2022-11-20T12:56:43.229Z,15.15
2022-11-20T12:59:19.164Z,14.98
2022-11-20T13:01:52.243Z,15.75
2022-11-20T13:04:36.665Z,15.65
2022-11-20T13:07:10.786Z,15.07
2022-11-20T13:09:44.842Z,14.85
2022-11-20T13:12:19.867Z,15.45
2022-11-20T13:14:52.384Z,14.73
2022-11-20T13:17:37.644Z,14.88
2022-11-20T13:20:15.484Z,15.47
2022-11-20T13:22:55.670Z,16.33
2022-11-20T13:25:25.238Z,15.30
2022-11-20T13:27:54.737Z,15.35
2022-11-20T13:30:27.734Z,14.90
2022-11-20T13:33:23.978Z,15.15
2022-11-20T13:36:02.707Z,15.30
2022-11-20T13:38:47.767Z,15.15
2022-11-20T13:41:34.265Z,15.13
2022-11-20T13:44:23.126Z,12.95
2022-11-20T13:46:49.981Z,14.15
2022-11-20T13:49:24.306Z,15.52
2022-11-20T13:51:56.297Z,15.32
2022-11-20T13:54:32.189Z,14.95
2022-11-20T13:57:13.600Z,14.43
2022-11-20T13:59:59.033Z,15.27
2022-11-20T14:02:28.850Z,15.52
2022-11-20T14:04:59.595Z,14.95
2022-11-20T14:07:42.009Z,15.45
2022-11-20T14:10:25.834Z,14.98
2022-11-20T14:12:55.210Z,15.15
2022-11-20T14:15:37.339Z,15.57
2022-11-20T14:18:21.345Z,15.77
2022-11-20T14:20:48.319Z,15.45
2022-11-20T14:23:30.053Z,16.80
2022-11-20T14:25:57.896Z,14.93
2022-11-20T14:28:30.164Z,14.32
2022-11-20T14:30:57.953Z,14.50
2022-11-20T14:33:27.861Z,15.63
2022-11-20T14:35:58.874Z,15.77
2022-11-20T14:38:29.186Z,15.80
2022-11-20T14:41:09.243Z,15.23
2022-11-20T14:43:38.722Z,15.38
2022-11-20T14:46:08.744Z,16.45
2022-11-20T14:48:58.545Z,12.43
2022-11-20T14:51:42.049Z,15.77
2022-11-20T14:54:19.390Z,14.38
2022-11-20T14:57:04.519Z,15.10
2022-11-20T14:59:36.332Z,14.93
2022-11-20T15:02:13.828Z,15.00
2022-11-20T15:04:51.912Z,13.98
2022-11-20T15:07:29.811Z,14.77
2022-11-20T15:10:08.525Z,14.93
2022-11-20T15:12:42.311Z,13.88
2022-11-20T15:15:18.270Z,15.20
2022-11-20T15:17:45.054Z,14.20
2022-11-20T15:20:17.639Z,13.68
2022-11-20T15:22:44.582Z,15.75
2022-11-20T15:25:18.877Z,15.75
2022-11-20T15:27:52.142Z,15.88
2022-11-20T15:30:20.985Z,14.32
2022-11-20T15:32:48.538Z,15.65
2022-11-20T15:35:16.128Z,15.25
2022-11-20T15:37:43.153Z,15.63
2022-11-20T15:40:10.757Z,16.25
2022-11-20T15:42:37.649Z,14.70
2022-11-20T15:45:07.189Z,15.75
2022-11-20T15:47:36.990Z,16.17
2022-11-20T15:50:04.191Z,16.00
2022-11-20T15:52:41.565Z,15.25
2022-11-20T15:55:11.107Z,16.75
2022-11-20T15:57:39.928Z,15.60
2022-11-20T16:00:12.077Z,16.55
2022-11-20T16:02:40.924Z,15.77
2022-11-20T16:05:15.488Z,18.38
2022-11-20T16:07:44.591Z,17.45
2022-11-20T16:10:11.340Z,16.17
2022-11-20T16:13:12.818Z,14.23
2022-11-20T16:15:49.131Z,14.20
2022-11-20T16:18:21.128Z,12.50
2022-11-20T16:20:51.367Z,11.98
2022-11-20T16:23:18.817Z,12.68
2022-11-20T16:25:48.168Z,12.57
2022-11-20T16:28:19.083Z,13.20
2022-11-20T16:30:47.130Z,11.52
2022-11-20T16:33:18.153Z,12.90
2022-11-20T16:35:45.217Z,12.55
2022-11-20T16:38:12.011Z,15.15
2022-11-20T16:40:38.943Z,13.27
2022-11-20T16:43:11.286Z,14.55
2022-11-20T16:45:49.807Z,11.63
2022-11-20T16:48:17.100Z,10.40
2022-11-20T16:51:02.112Z,11.07
2022-11-20T16:53:31.200Z,9.50
2022-11-20T16:56:17.252Z,10.65
2022-11-20T16:58:45.132Z,8.65
2022-11-20T17:01:20.910Z,8.45
2022-11-20T17:03:54.538Z,9.20
2022-11-20T17:06:26.276Z,7.45
2022-11-20T17:08:54.834Z,5.93
2022-11-20T17:11:21.619Z,7.40
2022-11-20T17:13:51.567Z,6.93
2022-11-20T17:16:24.165Z,7.32
2022-11-20T17:18:51.283Z,10.38
2022-11-20T17:21:21.751Z,7.35
2022-11-20T17:23:49.042Z,7.72
2022-11-20T17:26:21.921Z,6.10
2022-11-20T17:28:58.134Z,7.03
2022-11-20T17:31:26.270Z,8.05
2022-11-20T17:33:55.219Z,7.05
2022-11-20T17:36:22.197Z,7.82
2022-11-20T17:38:49.337Z,9.05
2022-11-20T17:41:18.289Z,7.35
2022-11-20T17:43:45.850Z,7.40
2022-11-20T17:46:18.357Z,8.02
2022-11-20T17:48:46.041Z,7.60
2022-11-20T17:51:17.709Z,8.30
2022-11-20T17:53:47.310Z,8.40
2022-11-20T17:56:33.045Z,8.55
2022-11-20T17:59:00.969Z,8.40
2022-11-20T18:01:27.746Z,8.13
2022-11-20T18:03:56.611Z,7.00
2022-11-20T18:06:26.001Z,7.63
2022-11-20T18:08:53.146Z,7.05
2022-11-20T18:11:24.450Z,7.05
2022-11-20T18:14:14.778Z,7.50
2022-11-20T18:16:54.517Z,5.82
2022-11-20T18:19:33.165Z,5.25
2022-11-20T18:22:01.930Z,4.93
2022-11-20T18:24:31.262Z,5.00
2022-11-20T18:27:02.357Z,5.07
2022-11-20T18:29:31.062Z,5.05
2022-11-20T18:31:58.626Z,4.20
2022-11-20T18:34:25.913Z,3.85
2022-11-20T18:36:55.911Z,4.30
2022-11-20T18:39:23.592Z,4.20
2022-11-20T18:42:09.372Z,3.40
2022-11-20T18:44:51.383Z,3.95
2022-11-20T18:47:34.126Z,4.47
2022-11-20T18:50:01.993Z,4.70
2022-11-20T18:52:34.783Z,4.50
2022-11-20T18:55:06.020Z,4.18
2022-11-20T18:57:34.996Z,4.93
2022-11-20T19:00:09.203Z,5.47
2022-11-20T19:02:40.976Z,5.10
2022-11-20T19:05:09.737Z,5.25
2022-11-20T19:07:36.514Z,5.70
2022-11-20T19:10:04.560Z,5.45
2022-11-20T19:12:31.725Z,4.32
2022-11-20T19:14:58.460Z,5.00
2022-11-20T19:17:25.161Z,4.97
2022-11-20T19:19:52.190Z,3.97
2022-11-20T19:22:19.070Z,5.10
2022-11-20T19:24:45.995Z,4.40
2022-11-20T19:27:14.915Z,4.35
2022-11-20T19:29:48.852Z,4.45
2022-11-20T19:32:17.859Z,3.88
2022-11-20T19:34:47.006Z,4.30
2022-11-20T19:37:15.985Z,3.42
2022-11-20T19:39:42.662Z,4.03
2022-11-20T19:42:11.577Z,4.60
2022-11-20T19:44:40.539Z,4.07
2022-11-20T19:47:13.018Z,3.88
2022-11-20T19:49:43.403Z,3.72
2022-11-20T19:52:10.358Z,4.10
2022-11-20T19:54:37.048Z,3.38
2022-11-20T19:57:03.793Z,4.40
2022-11-20T19:59:31.083Z,3.72
2022-11-20T20:01:58.319Z,3.97
2022-11-20T20:04:25.058Z,3.80
2022-11-20T20:06:54.037Z,4.20
2022-11-20T20:09:23.648Z,4.50
2022-11-20T20:11:50.554Z,3.55
2022-11-20T20:14:18.277Z,4.28
2022-11-20T20:16:45.422Z,3.45
2022-11-20T20:19:14.374Z,2.78
2022-11-20T20:21:44.175Z,4.55
2022-11-20T20:24:15.057Z,2.67
2022-11-20T20:26:44.351Z,3.20
2022-11-20T20:29:11.141Z,4.05
2022-11-20T20:31:39.994Z,3.70
2022-11-20T20:34:09.016Z,3.47
2022-11-20T20:36:37.913Z,4.05
2022-11-20T20:39:09.317Z,4.32
2022-11-20T20:41:36.055Z,3.83
2022-11-20T20:44:21.452Z,3.22
2022-11-20T20:46:48.227Z,3.40
2022-11-20T20:49:15.053Z,3.60
2022-11-20T20:51:41.783Z,3.03
2022-11-20T20:54:11.042Z,3.25
2022-11-20T20:56:38.706Z,3.13
2022-11-20T20:59:07.858Z,2.97
2022-11-20T21:01:34.651Z,3.85
2022-11-20T21:04:03.693Z,2.95
2022-11-20T21:06:30.445Z,2.75
2022-11-20T21:08:59.748Z,2.83
2022-11-20T21:11:26.606Z,3.00
2022-11-20T21:13:53.320Z,3.13
2022-11-20T21:16:22.385Z,2.58
2022-11-20T21:18:51.654Z,3.20
2022-11-20T21:21:37.347Z,2.85
2022-11-20T21:24:06.812Z,3.05
2022-11-20T21:26:33.673Z,2.55
2022-11-20T21:29:00.457Z,2.47
2022-11-20T21:31:30.855Z,3.33
2022-11-20T21:34:01.171Z,2.70
2022-11-20T21:36:33.544Z,3.10
2022-11-20T21:39:00.295Z,3.08
2022-11-20T21:41:30.182Z,2.42
2022-11-20T21:44:29.709Z,2.65
2022-11-20T21:46:47.879Z,3.00
2022-11-20T21:49:19.211Z,2.90
2022-11-20T21:51:48.234Z,2.90
2022-11-20T21:54:15.003Z,2.88
2022-11-20T21:56:41.663Z,2.90
2022-11-20T21:59:12.990Z,3.25
2022-11-20T22:01:42.054Z,3.05
2022-11-20T22:04:13.652Z,3.28
2022-11-20T22:06:40.315Z,3.65
2022-11-20T22:09:07.054Z,3.63
2022-11-20T22:11:33.728Z,2.88
2022-11-20T22:14:19.058Z,3.63
2022-11-20T22:16:49.536Z,4.03
2022-11-20T22:19:25.235Z,3.80
2022-11-20T22:24:21.101Z,4.78
2022-11-20T22:26:48.704Z,4.35
2022-11-20T22:29:17.922Z,4.22
2022-11-20T22:31:47.856Z,4.22
2022-11-20T22:34:17.081Z,4.50
2022-11-20T22:36:43.878Z,4.15
2022-11-20T22:39:10.633Z,3.85
2022-11-20T22:41:42.071Z,4.63
2022-11-20T22:44:15.411Z,4.88
2022-11-20T22:46:42.168Z,4.38
2022-11-20T22:49:09.048Z,5.25
2022-11-20T22:51:40.315Z,3.80
2022-11-20T22:54:10.067Z,4.25
2022-11-20T22:56:39.162Z,4.03
2022-11-20T22:59:11.146Z,5.18
2022-11-20T23:01:38.526Z,3.58
2022-11-20T23:04:09.434Z,3.95
2022-11-20T23:06:36.181Z,4.22
2022-11-20T23:09:04.476Z,3.83
2022-11-20T23:11:33.813Z,4.95
2022-11-20T23:14:07.379Z,4.80
2022-11-20T23:16:35.109Z,4.75
2022-11-20T23:19:10.348Z,4.43
2022-11-20T23:21:38.663Z,5.03
2022-11-20T23:24:11.418Z,4.03
2022-11-20T23:26:40.497Z,4.60
2022-11-20T23:29:07.868Z,4.72
2022-11-20T23:31:35.970Z,3.60
2022-11-20T23:34:03.067Z,5.05
2022-11-20T23:36:29.807Z,4.93
2022-11-20T23:38:56.924Z,3.47
2022-11-20T23:41:23.851Z,5.18
2022-11-20T23:43:53.767Z,4.35
2022-11-20T23:46:25.219Z,3.53
2022-11-20T23:48:54.286Z,5.40
2022-11-20T23:51:23.180Z,4.00
2022-11-20T23:53:52.128Z,5.53
2022-11-20T23:56:21.114Z,4.13
2022-11-20T23:58:47.790Z,5.25
